Time;durP1;ratioP1;P1;durP2;ratioP2;P2;SDS_P1;SDS_P2;PMS_P1;PMS_P2;Temp;Humidity;BMP_temperature;BMP_pressure;BME280_temperature;BME280_humidity;BME280_pressure;Samples;Min_cycle;Max_cycle;Signal;HPM_P1;HPM_P2
2023/07/07 00:00:36;;;;;;;17.67;14.90;;;;;;;17.37;100.00;-18494.88;5084752;28;20032;-76
2023/07/07 00:03:02;;;;;;;17.33;14.77;;;;;;;17.36;100.00;-18494.47;5079871;28;20057;-79
2023/07/07 00:05:27;;;;;;;17.17;15.15;;;;;;;17.32;100.00;-18493.38;5080040;28;20036;-80
2023/07/07 00:07:53;;;;;;;18.70;14.57;;;;;;;17.27;100.00;-18492.16;5065777;28;20066;-76
2023/07/07 00:10:18;;;;;;;20.60;15.80;;;;;;;17.25;100.00;-18491.59;5081485;28;20090;-77
2023/07/07 00:12:45;;;;;;;19.10;14.90;;;;;;;17.26;100.00;-18491.88;5079263;28;20651;-76
2023/07/07 00:15:10;;;;;;;22.33;16.80;;;;;;;17.21;100.00;-18490.50;5085411;28;20055;-76
2023/07/07 00:17:36;;;;;;;18.63;15.18;;;;;;;17.22;100.00;-18490.78;5084171;28;20078;-75
2023/07/07 00:20:07;;;;;;;21.58;16.45;;;;;;;17.10;100.00;-18487.63;5085018;28;20064;-81
2023/07/07 00:22:34;;;;;;;20.35;15.50;;;;;;;16.81;100.00;-18479.72;5083570;28;20055;-80
2023/07/07 00:25:00;;;;;;;22.00;16.65;;;;;;;16.84;100.00;-18480.69;5080442;28;20040;-79
2023/07/07 00:27:26;;;;;;;20.38;16.42;;;;;;;16.87;100.00;-18481.50;5077429;28;20067;-80
2023/07/07 00:29:51;;;;;;;21.42;16.00;;;;;;;16.78;100.00;-18478.91;5077839;28;20098;-78
2023/07/07 00:32:16;;;;;;;21.75;16.55;;;;;;;16.87;100.00;-18481.34;5076674;28;20063;-79
2023/07/07 00:34:41;;;;;;;21.02;15.77;;;;;;;16.87;100.00;-18481.34;5078052;28;20041;-81
2023/07/07 00:37:07;;;;;;;23.50;18.25;;;;;;;16.85;100.00;-18480.94;5077755;28;20052;-78
2023/07/07 00:39:32;;;;;;;20.75;17.10;;;;;;;16.88;100.00;-18481.75;5079206;28;20055;-78
2023/07/07 00:41:58;;;;;;;23.88;16.85;;;;;;;16.88;100.00;-18481.63;5078316;28;20487;-78
2023/07/07 00:44:29;;;;;;;22.90;16.40;;;;;;;16.90;100.00;-18482.19;5081725;28;20051;-77
2023/07/07 00:46:55;;;;;;;21.48;15.52;;;;;;;16.78;100.00;-18479.03;5077617;28;20062;-80
2023/07/07 00:49:22;;;;;;;19.92;15.35;;;;;;;16.91;100.00;-18482.59;5079131;28;20534;-80
2023/07/07 00:51:59;;;;;;;21.33;15.88;;;;;;;16.87;100.00;-18481.50;5078560;28;20394;-79
2023/07/07 00:54:28;;;;;;;19.48;15.70;;;;;;;16.72;100.00;-18477.41;5079425;28;20063;-80
2023/07/07 00:56:55;;;;;;;21.52;16.02;;;;;;;16.68;100.00;-18476.44;5076012;28;20051;-79
2023/07/07 00:59:29;;;;;;;18.23;15.13;;;;;;;16.68;100.00;-18476.28;5082531;28;20075;-80
2023/07/07 01:01:58;;;;;;;20.63;16.17;;;;;;;16.62;100.00;-18474.66;5078406;28;20155;-81
2023/07/07 01:04:25;;;;;;;24.42;16.13;;;;;;;16.62;100.00;-18474.66;5063499;28;20712;-79
2023/07/07 01:06:55;;;;;;;23.45;16.48;;;;;;;16.65;100.00;-18475.63;5076956;28;20135;-80
2023/07/07 01:09:21;;;;;;;21.00;16.30;;;;;;;16.73;100.00;-18477.53;5063149;28;20028;-78
2023/07/07 01:11:47;;;;;;;21.83;16.55;;;;;;;16.77;100.00;-18478.75;5080160;28;20051;-78
2023/07/07 01:14:18;;;;;;;21.80;17.58;;;;;;;16.79;100.00;-18479.16;5061612;28;20552;-80
2023/07/07 01:16:53;;;;;;;18.48;15.10;;;;;;;16.84;100.00;-18480.69;5059939;28;20056;-80
2023/07/07 01:19:24;;;;;;;20.23;15.32;;;;;;;16.73;100.00;-18477.66;5075550;28;20040;-78
2023/07/07 01:22:27;;;;;;;21.55;15.77;;;;;;;16.71;100.00;-18477.13;5080283;28;20046;-77
2023/07/07 01:25:08;;;;;;;20.42;14.95;;;;;;;16.66;100.00;-18475.88;5080315;28;20724;-77
2023/07/07 01:27:55;;;;;;;22.98;16.45;;;;;;;16.64;100.00;-18475.22;5060046;28;20281;-78
2023/07/07 01:30:29;;;;;;;22.08;16.15;;;;;;;16.66;100.00;-18475.88;5077176;28;20055;-78
2023/07/07 01:33:01;;;;;;;20.00;16.02;;;;;;;16.58;100.00;-18473.56;5080576;28;20790;-80
2023/07/07 01:35:26;;;;;;;21.60;16.27;;;;;;;16.60;100.00;-18474.25;5079665;28;20044;-78
2023/07/07 01:37:58;;;;;;;22.30;16.30;;;;;;;16.58;100.00;-18473.69;5078973;28;20395;-79
2023/07/07 01:40:47;;;;;;;22.15;16.15;;;;;;;16.66;100.00;-18475.75;5081266;28;20059;-78
2023/07/07 01:43:19;;;;;;;23.35;16.60;;;;;;;16.68;100.00;-18476.28;5081352;28;20052;-80
2023/07/07 01:45:53;;;;;;;23.25;16.67;;;;;;;16.41;100.00;-18469.19;5064225;28;21848;-80
2023/07/07 01:48:21;;;;;;;21.25;16.20;;;;;;;16.36;100.00;-18467.81;5063875;28;20044;-78
2023/07/07 01:50:49;;;;;;;20.43;16.43;;;;;;;16.32;100.00;-18466.59;5084398;28;20034;-80
2023/07/07 01:53:21;;;;;;;22.98;17.55;;;;;;;16.46;100.00;-18470.44;5084605;28;20051;-79
2023/07/07 01:55:57;;;;;;;22.75;17.02;;;;;;;16.41;100.00;-18469.19;5085736;28;20039;-80
2023/07/07 01:58:25;;;;;;;22.50;16.38;;;;;;;16.30;100.00;-18466.19;5091511;28;20088;-80
2023/07/07 02:00:53;;;;;;;21.63;16.63;;;;;;;16.32;100.00;-18466.75;5071596;28;20036;-80
2023/07/07 02:03:21;;;;;;;22.10;16.73;;;;;;;16.41;100.00;-18469.19;5090857;28;20048;-81
2023/07/07 02:05:47;;;;;;;21.27;15.40;;;;;;;16.40;100.00;-18468.78;5085798;28;20074;-79
2023/07/07 02:08:12;;;;;;;24.98;16.65;;;;;;;16.33;100.00;-18467.00;5093487;28;20040;-80
2023/07/07 02:10:38;;;;;;;22.15;17.33;;;;;;;16.34;100.00;-18467.16;5087465;28;20039;-80
2023/07/07 02:13:03;;;;;;;22.23;16.55;;;;;;;16.26;100.00;-18465.09;5068328;28;20040;-80
2023/07/07 02:15:28;;;;;;;22.70;17.45;;;;;;;16.21;100.00;-18463.72;5078029;28;20036;-79
2023/07/07 02:17:54;;;;;;;23.10;16.98;;;;;;;16.19;100.00;-18463.31;5090285;28;20052;-80
2023/07/07 02:20:19;;;;;;;24.23;16.90;;;;;;;16.22;100.00;-18464.13;5081811;28;20053;-80
2023/07/07 02:22:46;;;;;;;22.90;17.15;;;;;;;16.19;100.00;-18463.19;5086563;28;20498;-79
2023/07/07 02:25:12;;;;;;;22.50;16.98;;;;;;;16.24;100.00;-18464.56;5066154;28;20557;-81
2023/07/07 02:27:37;;;;;;;21.23;17.48;;;;;;;16.08;100.00;-18460.19;5087564;28;20036;-77
2023/07/07 02:30:03;;;;;;;23.98;17.58;;;;;;;15.92;100.00;-18456.06;5081128;28;20048;-79
2023/07/07 02:32:28;;;;;;;23.60;17.85;;;;;;;15.85;100.00;-18454.03;5087578;28;20096;-78
2023/07/07 02:34:56;;;;;;;23.17;18.13;;;;;;;15.85;100.00;-18454.16;5081695;28;20581;-80
2023/07/07 02:37:22;;;;;;;23.42;17.45;;;;;;;15.74;100.00;-18451.28;5088489;28;20040;-79
2023/07/07 02:39:47;;;;;;;26.58;16.88;;;;;;;15.68;100.00;-18449.50;5087771;28;20090;-79
2023/07/07 02:42:14;;;;;;;23.25;17.95;;;;;;;15.81;100.00;-18453.06;5086808;28;20051;-80
2023/07/07 02:44:40;;;;;;;24.10;17.05;;;;;;;15.66;100.00;-18449.09;5078213;28;20044;-79
2023/07/07 02:47:06;;;;;;;24.65;16.80;;;;;;;15.70;100.00;-18450.06;5088875;28;20495;-80
2023/07/07 02:49:31;;;;;;;23.08;16.27;;;;;;;15.67;100.00;-18449.22;5087322;28;20040;-78
2023/07/07 02:51:57;;;;;;;22.73;16.48;;;;;;;15.65;100.00;-18448.81;5087995;28;20167;-79
2023/07/07 02:54:22;;;;;;;21.88;16.10;;;;;;;15.55;100.00;-18446.22;5086222;28;20045;-80
2023/07/07 02:56:48;;;;;;;22.00;16.70;;;;;;;15.55;100.00;-18446.09;5087168;28;20055;-79
2023/07/07 02:59:13;;;;;;;21.63;16.85;;;;;;;15.61;100.00;-18447.59;5080904;28;20071;-80
2023/07/07 03:01:44;;;;;;;23.15;18.38;;;;;;;15.67;100.00;-18449.22;5068727;28;20059;-80
2023/07/07 03:04:10;;;;;;;24.23;18.50;;;;;;;15.53;100.00;-18445.69;5080260;28;20047;-79
2023/07/07 03:06:36;;;;;;;23.15;18.33;;;;;;;15.46;100.00;-18443.75;5080369;28;20048;-80
2023/07/07 03:09:02;;;;;;;28.80;18.90;;;;;;;15.54;100.00;-18445.81;5088180;28;20044;-80
2023/07/07 03:11:27;;;;;;;25.50;17.58;;;;;;;15.63;100.00;-18448.13;5081965;28;20044;-77
2023/07/07 03:13:53;;;;;;;25.13;17.92;;;;;;;15.50;100.00;-18444.84;5061169;28;20039;-79
2023/07/07 03:16:23;;;;;;;22.48;16.85;;;;;;;15.55;100.00;-18446.22;5081058;28;20044;-78
2023/07/07 03:18:51;;;;;;;24.13;17.55;;;;;;;15.52;100.00;-18445.28;5087416;28;20033;-77
2023/07/07 03:21:18;;;;;;;23.75;18.60;;;;;;;15.40;100.00;-18442.13;5084270;28;20075;-78
2023/07/07 03:23:44;;;;;;;24.05;17.48;;;;;;;15.40;100.00;-18442.13;5087367;28;20059;-79
2023/07/07 03:26:14;;;;;;;25.83;17.42;;;;;;;15.38;100.00;-18441.56;5087298;28;20458;-80
2023/07/07 03:28:40;;;;;;;25.35;17.67;;;;;;;15.35;100.00;-18440.75;5076800;28;20090;-79
2023/07/07 03:31:22;;;;;;;24.70;17.92;;;;;;;15.30;100.00;-18439.38;5082237;28;20037;-79
2023/07/07 03:33:50;;;;;;;22.55;17.80;;;;;;;15.37;100.00;-18441.16;5084095;28;20041;-81
2023/07/07 03:36:15;;;;;;;24.00;17.20;;;;;;;15.43;100.00;-18442.94;5082102;28;20525;-80
2023/07/07 03:38:42;;;;;;;25.60;19.05;;;;;;;15.37;100.00;-18441.31;5085739;28;20131;-77
2023/07/07 03:41:13;;;;;;;28.38;19.05;;;;;;;15.37;100.00;-18441.16;5086237;28;20460;-79
2023/07/07 03:43:39;;;;;;;30.58;19.15;;;;;;;15.34;100.00;-18440.47;5078593;28;20051;-79
2023/07/07 03:46:05;;;;;;;28.35;19.98;;;;;;;15.42;100.00;-18442.66;5084183;28;20036;-80
2023/07/07 03:48:31;;;;;;;30.17;18.45;;;;;;;15.40;100.00;-18442.00;5081117;28;20044;-80
2023/07/07 03:50:56;;;;;;;28.75;19.60;;;;;;;15.43;100.00;-18442.81;5087330;28;20036;-80
2023/07/07 03:53:21;;;;;;;25.92;19.00;;;;;;;15.42;100.00;-18442.53;5085829;28;20101;-78
2023/07/07 03:55:47;;;;;;;27.05;19.05;;;;;;;15.47;100.00;-18444.03;5081853;28;20040;-81
2023/07/07 03:58:12;;;;;;;27.63;19.13;;;;;;;15.39;100.00;-18441.84;5062237;28;20462;-79
2023/07/07 04:00:37;;;;;;;28.65;19.77;;;;;;;15.25;100.00;-18438.03;5085653;28;20043;-78
2023/07/07 04:03:03;;;;;;;27.20;18.67;;;;;;;15.39;100.00;-18441.84;5079227;28;20048;-80
2023/07/07 04:05:28;;;;;;;26.77;19.23;;;;;;;15.47;100.00;-18444.03;5068309;28;20055;-78
2023/07/07 04:07:53;;;;;;;29.73;19.95;;;;;;;15.64;100.00;-18448.41;5083501;28;20028;-79
2023/07/07 04:10:19;;;;;;;26.85;19.17;;;;;;;15.48;100.00;-18444.19;5082795;28;20127;-80
2023/07/07 04:12:44;;;;;;;31.65;19.77;;;;;;;15.42;100.00;-18442.53;5082765;28;20041;-79
2023/07/07 04:15:10;;;;;;;24.60;17.70;;;;;;;15.34;100.00;-18440.47;5057635;28;20032;-78
2023/07/07 04:17:35;;;;;;;26.90;19.45;;;;;;;15.34;100.00;-18440.47;5087485;28;20050;-80
2023/07/07 04:20:02;;;;;;;28.38;18.77;;;;;;;15.43;100.00;-18442.94;5069715;28;20044;-78
2023/07/07 04:22:29;;;;;;;29.48;19.65;;;;;;;15.50;100.00;-18444.72;5085422;28;20052;-79
2023/07/07 04:25:12;;;;;;;30.30;20.85;;;;;;;15.49;100.00;-18444.44;5062659;28;20089;-77
2023/07/07 04:27:37;;;;;;;30.55;20.40;;;;;;;15.61;100.00;-18447.72;5083813;28;20046;-77
2023/07/07 04:30:04;;;;;;;27.02;19.73;;;;;;;15.69;100.00;-18449.78;5083522;28;20048;-78
2023/07/07 04:32:29;;;;;;;25.23;18.85;;;;;;;15.87;100.00;-18454.72;5077524;28;20044;-78
2023/07/07 04:34:55;;;;;;;26.85;20.60;;;;;;;15.90;100.00;-18455.53;5080980;28;20051;-79
2023/07/07 04:37:20;;;;;;;31.10;21.67;;;;;;;15.93;100.00;-18456.34;5079537;28;20248;-78
2023/07/07 04:39:46;;;;;;;33.67;22.08;;;;;;;15.86;100.00;-18454.44;5083832;28;20486;-78
2023/07/07 04:42:11;;;;;;;28.75;19.63;;;;;;;15.96;100.00;-18457.03;5063711;28;20461;-78
2023/07/07 04:44:36;;;;;;;30.52;20.05;;;;;;;16.11;100.00;-18461.13;5078817;28;20182;-78
2023/07/07 04:47:02;;;;;;;26.85;20.08;;;;;;;16.20;100.00;-18463.47;5081078;28;20060;-79
2023/07/07 04:49:28;;;;;;;29.35;21.88;;;;;;;16.24;100.00;-18464.56;5078269;28;20064;-77
2023/07/07 04:51:53;;;;;;;29.27;21.60;;;;;;;16.53;100.00;-18472.19;5080667;28;20085;-78
2023/07/07 04:54:18;;;;;;;31.08;21.50;;;;;;;16.73;100.00;-18477.66;5070537;28;20105;-77
2023/07/07 04:56:47;;;;;;;27.30;21.08;;;;;;;16.84;100.00;-18480.69;5070008;28;20417;-77
2023/07/07 04:59:13;;;;;;;37.22;20.88;;;;;;;16.86;100.00;-18481.22;5077822;28;20461;-77
2023/07/07 05:01:38;;;;;;;25.15;18.67;;;;;;;16.82;100.00;-18480.00;5058676;28;20040;-77
2023/07/07 05:04:05;;;;;;;28.65;20.83;;;;;;;16.92;100.00;-18482.88;5065826;28;20075;-77
2023/07/07 05:06:33;;;;;;;31.52;21.42;;;;;;;17.11;100.00;-18487.78;5070304;28;20094;-78
2023/07/07 05:09:00;;;;;;;26.37;20.77;;;;;;;17.31;100.00;-18493.25;5074111;28;20090;-77
2023/07/07 05:11:35;;;;;;;28.52;20.92;;;;;;;17.36;100.00;-18494.47;5072284;28;20040;-78
2023/07/07 05:14:01;;;;;;;26.70;19.85;;;;;;;17.50;100.00;-18498.28;5072256;28;20071;-78
2023/07/07 05:16:33;;;;;;;25.15;19.35;;;;;;;17.67;100.00;-18502.78;5075201;28;20682;-78
2023/07/07 05:19:00;;;;;;;30.27;18.52;;;;;;;17.82;100.00;-18506.75;5062770;28;20059;-79
2023/07/07 05:21:26;;;;;;;28.23;19.85;;;;;;;17.99;100.00;-18511.25;5083260;28;20102;-78
2023/07/07 05:23:52;;;;;;;23.25;17.13;;;;;;;18.13;100.00;-18515.06;5062536;28;20040;-77
2023/07/07 05:26:22;;;;;;;24.00;17.98;;;;;;;18.21;100.00;-18517.25;5037776;28;1101099;-77
2023/07/07 05:28:48;;;;;;;22.92;17.35;;;;;;;18.24;100.00;-18518.06;5078449;28;20235;-78
2023/07/07 05:31:13;;;;;;;23.67;17.52;;;;;;;18.30;100.00;-18519.56;5084959;28;20140;-77
2023/07/07 05:33:39;;;;;;;22.10;17.48;;;;;;;18.40;100.00;-18522.16;5075819;28;20487;-77
2023/07/07 05:36:08;;;;;;;20.85;16.70;;;;;;;18.52;100.00;-18525.44;5064374;28;20041;-78
2023/07/07 05:38:34;;;;;;;21.45;15.57;;;;;;;18.64;100.00;-18528.72;5081580;28;20538;-78
2023/07/07 05:40:59;;;;;;;18.92;14.93;;;;;;;18.87;100.00;-18534.84;5080274;28;20065;-77
2023/07/07 05:43:26;;;;;;;21.35;15.05;;;;;;;19.03;100.00;-18539.06;5079137;28;20044;-77
2023/07/07 05:45:56;;;;;;;21.17;14.52;;;;;;;19.12;100.00;-18541.38;5079415;28;20422;-78
2023/07/07 05:48:23;;;;;;;18.08;13.50;;;;;;;19.29;100.00;-18545.88;5056621;28;20178;-78
2023/07/07 05:50:49;;;;;;;19.00;13.60;;;;;;;19.48;100.00;-18551.06;5066883;28;20036;-78
2023/07/07 05:53:16;;;;;;;20.30;14.38;;;;;;;19.53;100.00;-18552.44;5079120;28;20051;-77
2023/07/07 05:55:46;;;;;;;22.00;13.52;;;;;;;19.72;100.00;-18557.34;5081632;28;20076;-78
2023/07/07 05:58:13;;;;;;;18.27;13.07;;;;;;;19.71;100.00;-18557.19;5077471;28;20054;-77
2023/07/07 06:00:39;;;;;;;17.45;11.82;;;;;;;19.82;100.00;-18560.06;5085020;28;20040;-77
2023/07/07 06:03:04;;;;;;;17.75;12.52;;;;;;;19.93;100.00;-18563.06;5082305;28;20059;-76
2023/07/07 06:05:30;;;;;;;15.20;12.73;;;;;;;20.12;100.00;-18567.97;5076218;28;20521;-78
2023/07/07 06:07:55;;;;;;;18.75;12.13;;;;;;;20.16;100.00;-18569.03;5087712;28;20680;-77
2023/07/07 06:10:24;;;;;;;15.65;11.02;;;;;;;20.29;100.00;-18572.59;5088285;28;20051;-77
2023/07/07 06:12:50;;;;;;;15.50;10.70;;;;;;;20.42;100.00;-18575.97;5086520;28;20044;-77
2023/07/07 06:15:16;;;;;;;15.68;10.95;;;;;;;20.60;100.00;-18580.75;5081027;28;20062;-77
2023/07/07 06:17:42;;;;;;;15.05;11.10;;;;;;;20.66;100.00;-18582.53;5084729;28;20644;-78
2023/07/07 06:20:08;;;;;;;16.23;10.75;;;;;;;20.84;100.00;-18587.28;5087147;28;20068;-78
2023/07/07 06:22:33;;;;;;;14.45;10.18;;;;;;;21.05;100.00;-18592.72;5087075;28;20056;-77
2023/07/07 06:25:00;;;;;;;14.25;10.07;;;;;;;21.38;100.00;-18601.69;5084723;28;20040;-77
2023/07/07 06:27:26;;;;;;;13.40;9.95;;;;;;;21.49;100.00;-18604.56;5067687;28;20052;-76
2023/07/07 06:29:52;;;;;;;16.25;9.73;;;;;;;21.54;100.00;-18605.91;5086757;28;20056;-78
2023/07/07 06:32:20;;;;;;;12.77;8.43;;;;;;;21.55;100.00;-18606.03;5080470;28;20064;-77
2023/07/07 06:34:46;;;;;;;12.45;8.88;;;;;;;21.65;100.00;-18608.63;5086990;28;20048;-78
2023/07/07 06:37:11;;;;;;;13.93;7.90;;;;;;;;;;5076265;28;20483;-76
2023/07/07 06:39:36;;;;;;;17.25;8.52;;;;;;;21.89;100.00;-18615.00;5087046;28;20098;-77
2023/07/07 06:42:02;;;;;;;11.57;7.68;;;;;;;22.01;99.55;-18618.41;5084675;28;20032;-78
2023/07/07 06:44:29;;;;;;;12.23;8.20;;;;;;;22.15;97.99;-18622.06;5086559;28;20177;-75
2023/07/07 06:46:55;;;;;;;14.30;7.20;;;;;;;22.28;95.45;-18625.63;5068062;28;20033;-79
2023/07/07 06:49:20;;;;;;;10.23;7.07;;;;;;;22.32;94.77;-18626.44;5087276;28;20046;-78
2023/07/07 06:51:46;;;;;;;12.18;6.45;;;;;;;22.55;93.65;-18632.66;5077229;28;20045;-78
2023/07/07 06:54:11;;;;;;;11.23;6.70;;;;;;;22.71;92.05;-18636.88;5083737;28;20036;-79
2023/07/07 06:56:37;;;;;;;8.68;5.78;;;;;;;22.93;88.55;-18642.72;5082603;28;20051;-79
2023/07/07 06:59:05;;;;;;;10.65;6.03;;;;;;;23.05;87.81;-18645.97;5082529;28;20120;-79
2023/07/07 07:01:30;;;;;;;9.10;5.07;;;;;;;23.08;86.15;-18646.66;5083651;28;20044;-79
2023/07/07 07:04:00;;;;;;;8.82;5.22;;;;;;;23.12;82.75;-18647.88;5072154;28;20093;-77
2023/07/07 07:06:25;;;;;;;9.90;5.85;;;;;;;23.38;82.53;-18654.78;5079662;28;20412;-79
2023/07/07 07:08:51;;;;;;;9.13;5.10;;;;;;;23.60;84.17;-18660.50;5069384;28;20055;-79
2023/07/07 07:11:16;;;;;;;9.23;5.00;;;;;;;23.64;77.72;-18661.72;5072835;28;20459;-78
2023/07/07 07:13:42;;;;;;;8.45;4.88;;;;;;;23.77;75.05;-18664.97;5083439;28;20454;-79
2023/07/07 07:16:10;;;;;;;6.57;4.18;;;;;;;23.87;72.29;-18667.69;5065825;28;20036;-79
2023/07/07 07:18:36;;;;;;;7.30;3.67;;;;;;;24.00;75.33;-18671.06;5079096;28;20044;-78
2023/07/07 07:21:01;;;;;;;7.10;3.28;;;;;;;23.99;67.95;-18670.94;5076671;28;20036;-79
2023/07/07 07:23:26;;;;;;;6.10;2.92;;;;;;;24.04;66.65;-18672.28;5081583;28;20550;-77
2023/07/07 07:25:52;;;;;;;7.38;3.15;;;;;;;24.18;66.28;-18675.81;5076159;28;20427;-79
2023/07/07 07:28:17;;;;;;;6.60;3.40;;;;;;;24.33;64.68;-18679.88;5079536;28;20039;-79
2023/07/07 07:30:42;;;;;;;6.25;2.67;;;;;;;24.42;63.19;-18682.31;5083402;28;20113;-78
2023/07/07 07:33:14;;;;;;;5.82;3.10;;;;;;;24.63;60.96;-18687.88;5085281;28;20064;-76
2023/07/07 07:35:40;;;;;;;6.28;3.00;;;;;;;24.64;61.53;-18688.00;5075117;28;20541;-77
2023/07/07 07:38:06;;;;;;;8.63;3.35;;;;;;;24.81;59.86;-18692.63;5078813;28;20109;-77
2023/07/07 07:40:32;;;;;;;7.07;3.03;;;;;;;24.87;58.74;-18694.09;5082916;28;20057;-78
2023/07/07 07:42:57;;;;;;;3.95;2.33;;;;;;;24.83;55.47;-18693.03;5080999;28;20068;-77
2023/07/07 07:45:23;;;;;;;5.38;2.50;;;;;;;25.04;57.41;-18698.56;5077800;28;20056;-78
2023/07/07 07:47:51;;;;;;;4.85;2.05;;;;;;;25.12;54.85;-18700.75;5083560;28;20044;-78
2023/07/07 07:50:17;;;;;;;5.85;2.10;;;;;;;25.29;55.83;-18705.34;5080317;28;20057;-78
2023/07/07 07:52:43;;;;;;;5.47;2.55;;;;;;;25.44;53.92;-18709.28;5085023;28;20082;-79
2023/07/07 07:55:09;;;;;;;5.00;2.38;;;;;;;25.49;51.36;-18710.50;5081834;28;20526;-80
2023/07/07 07:57:34;;;;;;;4.30;1.92;;;;;;;25.72;51.88;-18716.72;5064294;28;20541;-80
2023/07/07 08:00:00;;;;;;;4.82;2.33;;;;;;;25.98;48.60;-18723.47;5084136;28;20044;-78
2023/07/07 08:02:25;;;;;;;5.55;2.30;;;;;;;26.08;48.18;-18726.19;5079045;28;20580;-77
2023/07/07 08:04:51;;;;;;;5.65;2.17;;;;;;;26.12;49.79;-18727.25;5084454;28;20432;-81
2023/07/07 08:07:16;;;;;;;6.07;2.60;;;;;;;26.18;49.01;-18728.75;5081944;28;20044;-79
2023/07/07 08:09:42;;;;;;;4.22;2.10;;;;;;;26.28;50.05;-18731.47;5075725;28;20044;-79
2023/07/07 08:12:09;;;;;;;4.90;2.22;;;;;;;26.54;47.68;-18738.34;5070293;28;20043;-79
2023/07/07 08:14:35;;;;;;;6.38;2.42;;;;;;;26.60;46.93;-18739.97;5079745;28;20039;-80
2023/07/07 08:17:05;;;;;;;4.35;2.03;;;;;;;26.52;46.19;-18737.81;5085405;28;20051;-78
2023/07/07 08:19:32;;;;;;;5.28;1.73;;;;;;;26.59;45.13;-18739.72;5082628;28;20041;-79
2023/07/07 08:21:58;;;;;;;4.60;2.20;;;;;;;26.61;46.13;-18740.25;5087477;28;20048;-79
2023/07/07 08:24:24;;;;;;;3.40;1.98;;;;;;;26.58;44.75;-18739.31;5076485;28;20106;-80
2023/07/07 08:26:50;;;;;;;5.72;2.22;;;;;;;26.71;46.43;-18742.94;5078936;28;20134;-79
2023/07/07 08:29:25;;;;;;;4.28;2.05;;;;;;;26.78;45.85;-18744.69;5068995;28;20048;-79
2023/07/07 08:31:51;;;;;;;6.60;2.15;;;;;;;26.70;44.74;-18742.53;5041961;28;20082;-80
2023/07/07 08:34:16;;;;;;;6.95;2.10;;;;;;;26.71;46.07;-18742.81;5029434;28;20128;-79
2023/07/07 08:36:42;;;;;;;5.78;2.15;;;;;;;26.81;46.41;-18745.38;5045160;28;20063;-79
2023/07/07 08:39:16;;;;;;;4.70;2.42;;;;;;;26.76;44.88;-18744.31;5057648;28;20047;-79
2023/07/07 08:41:48;;;;;;;5.95;2.05;;;;;;;26.80;45.39;-18745.09;5058467;28;20051;-79
2023/07/07 08:44:16;;;;;;;3.20;1.88;;;;;;;26.86;44.85;-18746.72;5055742;28;20044;-78
2023/07/07 08:47:07;;;;;;;4.38;2.08;;;;;;;26.64;45.80;-18741.06;5053801;28;21442;-80
2023/07/07 08:50:23;;;;;;;3.35;1.90;;;;;;;26.95;45.62;-18749.28;5016706;28;20136;-79
2023/07/07 08:53:01;;;;;;;4.35;2.10;;;;;;;27.09;44.27;-18752.94;4979768;28;20065;-80
2023/07/07 08:55:45;;;;;;;4.35;2.03;;;;;;;27.11;43.24;-18753.47;5040274;28;20107;-78
2023/07/07 08:58:22;;;;;;;4.15;1.80;;;;;;;27.23;42.01;-18756.72;5024700;28;20104;-79
2023/07/07 09:01:02;;;;;;;3.53;1.77;;;;;;;27.29;42.11;-18758.09;5032527;28;20032;-79
2023/07/07 09:03:36;;;;;;;5.78;1.98;;;;;;;27.35;42.23;-18759.84;5026399;28;20045;-77
2023/07/07 09:06:35;;;;;;;3.95;1.83;;;;;;;27.28;40.76;-18757.94;5039202;28;20546;-80
2023/07/07 09:09:01;;;;;;;4.75;1.75;;;;;;;27.32;43.36;-18758.88;5092450;28;20115;-79
2023/07/07 09:11:47;;;;;;;4.63;2.10;;;;;;;27.50;42.41;-18763.63;5092221;28;20117;-79
2023/07/07 09:14:14;;;;;;;4.78;2.00;;;;;;;27.74;42.55;-18769.97;5091179;28;20117;-79
2023/07/07 09:16:42;;;;;;;5.18;1.77;;;;;;;27.88;41.15;-18773.75;5084609;28;20406;-79
2023/07/07 09:19:15;;;;;;;6.73;1.90;;;;;;;27.81;41.63;-18771.84;5088869;28;20454;-79
2023/07/07 09:21:46;;;;;;;4.65;1.63;;;;;;;27.83;42.47;-18772.38;5088038;28;20048;-80
2023/07/07 09:24:21;;;;;;;5.30;2.17;;;;;;;28.02;40.47;-18777.50;5081089;28;20122;-79
2023/07/07 09:26:52;;;;;;;3.60;2.00;;;;;;;28.18;40.07;-18781.69;5082401;28;20201;-79
2023/07/07 09:29:30;;;;;;;3.83;1.80;;;;;;;28.38;40.28;-18786.97;5087598;28;20059;-79
2023/07/07 09:31:58;;;;;;;3.65;1.90;;;;;;;28.39;39.30;-18787.22;5087361;28;20123;-79
2023/07/07 09:34:24;;;;;;;3.55;1.75;;;;;;;28.38;39.14;-18786.81;5077204;28;20522;-79
2023/07/07 09:37:08;;;;;;;4.80;1.88;;;;;;;28.47;38.99;-18789.38;5089951;28;20081;-79
2023/07/07 09:39:56;;;;;;;4.63;1.75;;;;;;;28.67;39.86;-18794.66;5085370;28;20294;-79
2023/07/07 09:42:46;;;;;;;3.97;1.70;;;;;;;28.71;37.01;-18795.59;5087816;28;20132;-79
2023/07/07 09:45:25;;;;;;;3.92;1.67;;;;;;;28.47;37.42;-18789.25;5075624;28;20046;-80
2023/07/07 09:48:16;;;;;;;4.25;1.70;;;;;;;28.60;38.25;-18792.63;5087323;28;20044;-79
2023/07/07 09:51:05;;;;;;;3.13;1.67;;;;;;;28.85;38.08;-18799.22;5061166;28;20072;-79
2023/07/07 09:53:32;;;;;;;;;;;;;;;28.65;37.81;-18793.97;5085473;28;20530;-79
2023/07/07 09:55:58;;;;;;;6.15;2.00;;;;;;;28.58;37.39;-18792.09;5085204;28;19924;-79
2023/07/07 09:58:31;;;;;;;4.22;2.00;;;;;;;28.55;37.98;-18791.53;5085106;28;20063;-79
2023/07/07 10:01:00;;;;;;;3.95;1.80;;;;;;;28.75;37.86;-18796.66;5089340;28;20036;-77
2023/07/07 10:03:33;;;;;;;4.40;1.85;;;;;;;28.89;37.76;-18800.44;5083919;28;20090;-78
2023/07/07 10:06:01;;;;;;;4.55;1.95;;;;;;;28.93;37.74;-18801.38;5082610;28;20100;-77
2023/07/07 10:08:27;;;;;;;4.00;1.90;;;;;;;28.98;37.79;-18802.88;5066903;28;20051;-78
2023/07/07 10:11:23;;;;;;;4.45;1.73;;;;;;;28.92;36.20;-18801.13;5025507;28;20085;-79
2023/07/07 10:13:50;;;;;;;3.10;1.40;;;;;;;28.96;37.81;-18802.31;5006310;28;20056;-80
2023/07/07 10:16:29;;;;;;;4.45;1.73;;;;;;;29.11;36.93;-18806.09;5024676;28;20045;-79
2023/07/07 10:18:56;;;;;;;3.45;1.60;;;;;;;28.82;37.20;-18798.56;5009850;28;20520;-79
2023/07/07 10:21:21;;;;;;;3.22;1.60;;;;;;;29.05;37.63;-18804.63;5008425;28;20472;-79
2023/07/07 10:23:47;;;;;;;3.88;1.70;;;;;;;29.00;37.48;-18803.41;5023660;28;20048;-78
2023/07/07 10:26:12;;;;;;;3.90;2.00;;;;;;;29.10;36.81;-18805.97;4987280;28;20038;-79
2023/07/07 10:28:37;;;;;;;4.93;1.60;;;;;;;29.21;37.00;-18808.94;5024227;28;20053;-78
2023/07/07 10:31:06;;;;;;;4.55;2.33;;;;;;;29.21;36.88;-18808.94;5020254;28;20793;-78
2023/07/07 10:33:31;;;;;;;4.25;1.60;;;;;;;29.37;37.36;-18813.09;5019179;28;20112;-79
2023/07/07 10:35:56;;;;;;;4.43;1.85;;;;;;;29.61;36.26;-18819.31;5021517;28;20042;-78
2023/07/07 10:38:23;;;;;;;3.20;1.65;;;;;;;29.86;37.08;-18826.03;5021242;28;20057;-79
2023/07/07 10:40:48;;;;;;;4.00;1.98;;;;;;;29.70;33.58;-18821.72;5031760;28;20546;-79
2023/07/07 10:43:15;;;;;;;4.75;1.85;;;;;;;29.72;35.70;-18822.25;5076231;28;20070;-78
2023/07/07 10:45:45;;;;;;;4.93;2.15;;;;;;;29.70;35.86;-18821.72;5081778;28;20048;-79
2023/07/07 10:48:12;;;;;;;7.70;2.20;;;;;;;29.89;36.49;-18826.72;5078943;28;20039;-79
2023/07/07 10:50:46;;;;;;;3.08;1.60;;;;;;;29.56;34.66;-18818.09;5067471;28;20048;-79
2023/07/07 10:53:23;;;;;;;3.65;1.80;;;;;;;29.73;36.85;-18822.53;5086672;28;20048;-78
2023/07/07 10:56:13;;;;;;;5.05;1.90;;;;;;;29.45;34.81;-18815.25;5085861;28;20115;-79
2023/07/07 10:59:16;;;;;;;4.55;1.88;;;;;;;29.42;35.21;-18814.44;5050643;28;20078;-78
2023/07/07 11:01:57;;;;;;;5.72;2.00;;;;;;;29.67;36.33;-18820.94;5067841;28;20047;-78
2023/07/07 11:04:35;;;;;;;3.53;1.92;;;;;;;29.99;35.34;-18829.28;5060989;28;20047;-79
2023/07/07 11:07:24;;;;;;;3.80;1.77;;;;;;;30.03;35.74;-18830.34;5082080;28;20608;-79
2023/07/07 11:10:05;;;;;;;3.45;1.70;;;;;;;29.87;34.16;-18826.31;5078571;28;20052;-79
2023/07/07 11:13:03;;;;;;;3.42;1.70;;;;;;;29.99;33.63;-18829.28;5080449;28;20050;-79
2023/07/07 11:15:45;;;;;;;3.67;1.45;;;;;;;29.96;33.89;-18828.47;5074425;28;20059;-78
2023/07/07 11:18:35;;;;;;;3.72;1.65;;;;;;;29.87;34.63;-18826.16;5078970;28;20150;-79
2023/07/07 11:21:11;;;;;;;4.22;2.10;;;;;;;29.97;34.95;-18828.72;5065735;28;20048;-79